sensor_id;sensor_type;location;lat;lon;timestamp;temperature;humidity
34434;DHT22;34290;48.562;13.384;2022-09-03T00:01:12;8.80;99.90
34434;DHT22;34290;48.562;13.384;2022-09-03T00:03:43;8.70;99.90
34434;DHT22;34290;48.562;13.384;2022-09-03T00:06:14;8.70;99.90
34434;DHT22;34290;48.562;13.384;2022-09-03T00:08:45;8.70;99.90
34434;DHT22;34290;48.562;13.384;2022-09-03T00:11:18;8.70;99.90
34434;DHT22;34290;48.562;13.384;2022-09-03T00:13:50;8.60;99.90
34434;DHT22;34290;48.562;13.384;2022-09-03T00:16:21;8.50;99.90
34434;DHT22;34290;48.562;13.384;2022-09-03T00:18:54;8.50;99.90
34434;DHT22;34290;48.562;13.384;2022-09-03T00:21:32;8.50;99.90
34434;DHT22;34290;48.562;13.384;2022-09-03T00:24:03;8.40;99.90
34434;DHT22;34290;48.562;13.384;2022-09-03T00:26:33;8.50;99.90
34434;DHT22;34290;48.562;13.384;2022-09-03T00:29:05;8.50;99.90
34434;DHT22;34290;48.562;13.384;2022-09-03T00:31:35;8.50;99.90
34434;DHT22;34290;48.562;13.384;2022-09-03T00:34:08;8.40;99.90
34434;DHT22;34290;48.562;13.384;2022-09-03T00:36:39;8.30;99.90
34434;DHT22;34290;48.562;13.384;2022-09-03T00:39:12;8.30;99.90
34434;DHT22;34290;48.562;13.384;2022-09-03T00:41:51;8.30;99.90
34434;DHT22;34290;48.562;13.384;2022-09-03T00:47:25;8.20;99.90
34434;DHT22;34290;48.562;13.384;2022-09-03T00:50:02;8.20;99.90
34434;DHT22;34290;48.562;13.384;2022-09-03T00:52:40;8.20;99.90
34434;DHT22;34290;48.562;13.384;2022-09-03T00:55:21;8.10;99.90
34434;DHT22;34290;48.562;13.384;2022-09-03T00:58:04;8.10;99.90
34434;DHT22;34290;48.562;13.384;2022-09-03T01:00:33;8.00;99.90
34434;DHT22;34290;48.562;13.384;2022-09-03T01:03:05;8.00;99.90
34434;DHT22;34290;48.562;13.384;2022-09-03T01:05:54;8.00;99.90
34434;DHT22;34290;48.562;13.384;2022-09-03T01:08:33;8.00;99.90
34434;DHT22;34290;48.562;13.384;2022-09-03T01:11:13;7.90;99.90
34434;DHT22;34290;48.562;13.384;2022-09-03T01:13:53;7.90;99.90
34434;DHT22;34290;48.562;13.384;2022-09-03T01:16:27;7.90;99.90
34434;DHT22;34290;48.562;13.384;2022-09-03T01:19:04;7.80;99.90
34434;DHT22;34290;48.562;13.384;2022-09-03T01:22:02;7.80;99.90
34434;DHT22;34290;48.562;13.384;2022-09-03T01:24:46;7.80;99.90
34434;DHT22;34290;48.562;13.384;2022-09-03T01:27:34;7.90;99.90
34434;DHT22;34290;48.562;13.384;2022-09-03T01:30:06;7.90;99.90
34434;DHT22;34290;48.562;13.384;2022-09-03T01:32:39;7.90;99.90
34434;DHT22;34290;48.562;13.384;2022-09-03T01:35:16;7.80;99.90
34434;DHT22;34290;48.562;13.384;2022-09-03T01:37:56;7.70;99.90
34434;DHT22;34290;48.562;13.384;2022-09-03T01:40:33;7.70;99.90
34434;DHT22;34290;48.562;13.384;2022-09-03T01:43:17;7.60;99.90
34434;DHT22;34290;48.562;13.384;2022-09-03T01:45:53;7.60;99.90
34434;DHT22;34290;48.562;13.384;2022-09-03T01:48:34;7.60;99.90
34434;DHT22;34290;48.562;13.384;2022-09-03T01:51:11;7.60;99.90
34434;DHT22;34290;48.562;13.384;2022-09-03T01:54:01;7.60;99.90
34434;DHT22;34290;48.562;13.384;2022-09-03T01:56:44;7.60;99.90
34434;DHT22;34290;48.562;13.384;2022-09-03T01:59:21;7.70;99.90
34434;DHT22;34290;48.562;13.384;2022-09-03T02:01:55;7.70;99.90
34434;DHT22;34290;48.562;13.384;2022-09-03T02:04:25;7.60;99.90
34434;DHT22;34290;48.562;13.384;2022-09-03T02:06:55;7.60;99.90
34434;DHT22;34290;48.562;13.384;2022-09-03T02:09:23;7.50;99.90
34434;DHT22;34290;48.562;13.384;2022-09-03T02:11:53;7.50;99.90
34434;DHT22;34290;48.562;13.384;2022-09-03T02:16:51;7.40;99.90
34434;DHT22;34290;48.562;13.384;2022-09-03T02:19:19;7.30;99.90
34434;DHT22;34290;48.562;13.384;2022-09-03T02:21:49;7.40;99.90
34434;DHT22;34290;48.562;13.384;2022-09-03T02:24:17;7.40;99.90
34434;DHT22;34290;48.562;13.384;2022-09-03T02:26:44;7.40;99.90
34434;DHT22;34290;48.562;13.384;2022-09-03T02:29:12;7.40;99.90
34434;DHT22;34290;48.562;13.384;2022-09-03T02:31:39;7.30;99.90
34434;DHT22;34290;48.562;13.384;2022-09-03T02:34:08;7.30;99.90
34434;DHT22;34290;48.562;13.384;2022-09-03T02:36:39;7.30;99.90
34434;DHT22;34290;48.562;13.384;2022-09-03T02:39:06;7.40;99.90
34434;DHT22;34290;48.562;13.384;2022-09-03T02:44:04;7.30;99.90
34434;DHT22;34290;48.562;13.384;2022-09-03T02:46:36;7.20;99.90
34434;DHT22;34290;48.562;13.384;2022-09-03T02:49:04;7.20;99.90
34434;DHT22;34290;48.562;13.384;2022-09-03T02:51:34;7.20;99.90
34434;DHT22;34290;48.562;13.384;2022-09-03T02:58:56;7.00;99.90
34434;DHT22;34290;48.562;13.384;2022-09-03T03:01:26;7.00;99.90
34434;DHT22;34290;48.562;13.384;2022-09-03T03:03:53;7.00;99.90
34434;DHT22;34290;48.562;13.384;2022-09-03T03:06:20;7.00;99.90
34434;DHT22;34290;48.562;13.384;2022-09-03T03:08:49;7.00;99.90
34434;DHT22;34290;48.562;13.384;2022-09-03T03:11:17;6.90;99.90
34434;DHT22;34290;48.562;13.384;2022-09-03T03:13:45;7.00;99.90
34434;DHT22;34290;48.562;13.384;2022-09-03T03:16:15;6.90;99.90
34434;DHT22;34290;48.562;13.384;2022-09-03T03:18:43;6.90;99.90
34434;DHT22;34290;48.562;13.384;2022-09-03T03:21:12;6.90;99.90
34434;DHT22;34290;48.562;13.384;2022-09-03T03:23:40;6.90;99.90
34434;DHT22;34290;48.562;13.384;2022-09-03T03:26:12;6.90;99.90
34434;DHT22;34290;48.562;13.384;2022-09-03T03:28:39;6.90;99.90
34434;DHT22;34290;48.562;13.384;2022-09-03T03:31:07;6.90;99.90
34434;DHT22;34290;48.562;13.384;2022-09-03T03:33:34;6.80;99.90
34434;DHT22;34290;48.562;13.384;2022-09-03T03:36:05;6.80;99.90
34434;DHT22;34290;48.562;13.384;2022-09-03T03:38:33;6.80;99.90
34434;DHT22;34290;48.562;13.384;2022-09-03T03:41:06;6.80;99.90
34434;DHT22;34290;48.562;13.384;2022-09-03T03:43:34;6.70;99.90
34434;DHT22;34290;48.562;13.384;2022-09-03T03:46:01;6.70;99.90
34434;DHT22;34290;48.562;13.384;2022-09-03T03:48:30;6.70;99.90
34434;DHT22;34290;48.562;13.384;2022-09-03T03:51:00;6.70;99.90
34434;DHT22;34290;48.562;13.384;2022-09-03T03:53:28;6.70;99.90
34434;DHT22;34290;48.562;13.384;2022-09-03T03:55:56;6.60;99.90
34434;DHT22;34290;48.562;13.384;2022-09-03T03:58:23;6.60;99.90
34434;DHT22;34290;48.562;13.384;2022-09-03T04:00:52;6.70;99.90
34434;DHT22;34290;48.562;13.384;2022-09-03T04:03:20;6.80;99.90
34434;DHT22;34290;48.562;13.384;2022-09-03T04:05:54;6.70;99.90
34434;DHT22;34290;48.562;13.384;2022-09-03T04:10:49;6.60;99.90
34434;DHT22;34290;48.562;13.384;2022-09-03T04:13:16;6.60;99.90
34434;DHT22;34290;48.562;13.384;2022-09-03T04:15:43;6.60;99.90
34434;DHT22;34290;48.562;13.384;2022-09-03T04:18:15;6.70;99.90
34434;DHT22;34290;48.562;13.384;2022-09-03T04:20:42;6.70;99.90
34434;DHT22;34290;48.562;13.384;2022-09-03T04:25:37;6.80;99.90
34434;DHT22;34290;48.562;13.384;2022-09-03T04:30:33;6.80;99.90
34434;DHT22;34290;48.562;13.384;2022-09-03T04:33:00;6.80;99.90
34434;DHT22;34290;48.562;13.384;2022-09-03T04:35:29;6.80;99.90
34434;DHT22;34290;48.562;13.384;2022-09-03T04:37:57;6.90;99.90
34434;DHT22;34290;48.562;13.384;2022-09-03T04:40:24;6.90;99.90
34434;DHT22;34290;48.562;13.384;2022-09-03T04:42:56;7.00;99.90
34434;DHT22;34290;48.562;13.384;2022-09-03T04:45:23;7.10;99.90
34434;DHT22;34290;48.562;13.384;2022-09-03T04:47:57;7.30;99.90
34434;DHT22;34290;48.562;13.384;2022-09-03T04:50:24;7.50;99.90
34434;DHT22;34290;48.562;13.384;2022-09-03T04:52:54;7.70;99.90
34434;DHT22;34290;48.562;13.384;2022-09-03T04:55:23;7.90;99.90
34434;DHT22;34290;48.562;13.384;2022-09-03T04:57:50;8.20;99.90
34434;DHT22;34290;48.562;13.384;2022-09-03T05:00:17;8.40;99.90
34434;DHT22;34290;48.562;13.384;2022-09-03T05:02:45;8.50;99.90
34434;DHT22;34290;48.562;13.384;2022-09-03T05:05:14;8.50;99.90
34434;DHT22;34290;48.562;13.384;2022-09-03T05:07:41;8.60;99.90
34434;DHT22;34290;48.562;13.384;2022-09-03T05:10:11;8.80;99.90
34434;DHT22;34290;48.562;13.384;2022-09-03T05:12:41;9.00;99.90
34434;DHT22;34290;48.562;13.384;2022-09-03T05:15:08;9.20;99.90
34434;DHT22;34290;48.562;13.384;2022-09-03T05:20:04;10.00;99.90
34434;DHT22;34290;48.562;13.384;2022-09-03T05:22:33;10.40;99.90
34434;DHT22;34290;48.562;13.384;2022-09-03T05:27:30;11.00;99.90
34434;DHT22;34290;48.562;13.384;2022-09-03T05:29:57;11.40;99.90
34434;DHT22;34290;48.562;13.384;2022-09-03T05:32:24;11.90;99.90
34434;DHT22;34290;48.562;13.384;2022-09-03T05:34:53;12.50;99.90
34434;DHT22;34290;48.562;13.384;2022-09-03T05:39:48;13.20;99.90
34434;DHT22;34290;48.562;13.384;2022-09-03T05:42:15;13.50;99.90
34434;DHT22;34290;48.562;13.384;2022-09-03T05:44:44;13.80;99.90
34434;DHT22;34290;48.562;13.384;2022-09-03T05:47:11;14.10;99.90
34434;DHT22;34290;48.562;13.384;2022-09-03T05:49:38;14.80;99.90
34434;DHT22;34290;48.562;13.384;2022-09-03T05:52:05;15.90;99.90
34434;DHT22;34290;48.562;13.384;2022-09-03T05:54:34;16.00;99.90
34434;DHT22;34290;48.562;13.384;2022-09-03T05:57:01;16.50;99.90
34434;DHT22;34290;48.562;13.384;2022-09-03T06:01:58;17.20;99.90
34434;DHT22;34290;48.562;13.384;2022-09-03T06:04:28;17.70;99.90
34434;DHT22;34290;48.562;13.384;2022-09-03T06:06:55;17.70;99.90
34434;DHT22;34290;48.562;13.384;2022-09-03T06:09:22;18.40;99.90
34434;DHT22;34290;48.562;13.384;2022-09-03T06:11:49;18.40;99.90
34434;DHT22;34290;48.562;13.384;2022-09-03T06:14:18;19.10;99.90
34434;DHT22;34290;48.562;13.384;2022-09-03T06:16:46;20.80;97.80
34434;DHT22;34290;48.562;13.384;2022-09-03T06:19:16;20.80;97.60
34434;DHT22;34290;48.562;13.384;2022-09-03T06:21:44;21.20;96.00
34434;DHT22;34290;48.562;13.384;2022-09-03T06:24:15;22.00;94.70
34434;DHT22;34290;48.562;13.384;2022-09-03T06:26:43;22.80;93.70
34434;DHT22;34290;48.562;13.384;2022-09-03T06:29:11;18.60;92.80
34434;DHT22;34290;48.562;13.384;2022-09-03T06:31:38;23.40;91.30
34434;DHT22;34290;48.562;13.384;2022-09-03T06:34:07;23.20;91.70
34434;DHT22;34290;48.562;13.384;2022-09-03T06:36:36;23.40;92.00
34434;DHT22;34290;48.562;13.384;2022-09-03T06:39:03;23.30;91.60
34434;DHT22;34290;48.562;13.384;2022-09-03T06:41:31;23.70;91.40
34434;DHT22;34290;48.562;13.384;2022-09-03T06:44:01;23.20;91.10
34434;DHT22;34290;48.562;13.384;2022-09-03T06:46:29;23.70;90.60
34434;DHT22;34290;48.562;13.384;2022-09-03T06:48:57;24.30;89.80
34434;DHT22;34290;48.562;13.384;2022-09-03T06:51:26;24.30;90.30
34434;DHT22;34290;48.562;13.384;2022-09-03T06:53:59;24.80;89.60
34434;DHT22;34290;48.562;13.384;2022-09-03T06:56:26;25.60;87.60
34434;DHT22;34290;48.562;13.384;2022-09-03T06:58:54;25.60;85.30
34434;DHT22;34290;48.562;13.384;2022-09-03T07:01:23;25.30;86.70
34434;DHT22;34290;48.562;13.384;2022-09-03T07:03:52;25.40;86.40
34434;DHT22;34290;48.562;13.384;2022-09-03T07:06:22;25.70;87.50
34434;DHT22;34290;48.562;13.384;2022-09-03T07:08:50;26.20;86.00
34434;DHT22;34290;48.562;13.384;2022-09-03T07:11:21;26.70;84.70
34434;DHT22;34290;48.562;13.384;2022-09-03T07:13:51;25.90;81.80
34434;DHT22;34290;48.562;13.384;2022-09-03T07:16:20;25.70;83.60
34434;DHT22;34290;48.562;13.384;2022-09-03T07:18:48;25.50;83.50
34434;DHT22;34290;48.562;13.384;2022-09-03T07:21:17;25.70;84.00
34434;DHT22;34290;48.562;13.384;2022-09-03T07:23:45;25.10;84.90
34434;DHT22;34290;48.562;13.384;2022-09-03T07:26:14;26.20;84.50
34434;DHT22;34290;48.562;13.384;2022-09-03T07:28:43;26.90;82.00
34434;DHT22;34290;48.562;13.384;2022-09-03T07:31:13;27.70;80.70
34434;DHT22;34290;48.562;13.384;2022-09-03T07:33:40;26.50;79.60
34434;DHT22;34290;48.562;13.384;2022-09-03T07:36:09;26.20;83.50
34434;DHT22;34290;48.562;13.384;2022-09-03T07:38:36;27.40;82.10
34434;DHT22;34290;48.562;13.384;2022-09-03T07:41:05;28.20;81.90
34434;DHT22;34290;48.562;13.384;2022-09-03T07:43:35;28.80;80.60
34434;DHT22;34290;48.562;13.384;2022-09-03T07:46:04;29.30;78.70
34434;DHT22;34290;48.562;13.384;2022-09-03T07:48:31;29.40;79.40
34434;DHT22;34290;48.562;13.384;2022-09-03T07:50:59;29.80;78.80
34434;DHT22;34290;48.562;13.384;2022-09-03T07:53:27;30.40;77.00
34434;DHT22;34290;48.562;13.384;2022-09-03T07:55:59;30.50;77.40
34434;DHT22;34290;48.562;13.384;2022-09-03T07:58:27;30.20;75.70
34434;DHT22;34290;48.562;13.384;2022-09-03T08:00:55;30.20;76.90
34434;DHT22;34290;48.562;13.384;2022-09-03T08:03:23;30.60;75.90
34434;DHT22;34290;48.562;13.384;2022-09-03T08:05:51;30.40;77.10
34434;DHT22;34290;48.562;13.384;2022-09-03T08:08:18;30.80;75.30
34434;DHT22;34290;48.562;13.384;2022-09-03T08:10:45;31.10;75.50
34434;DHT22;34290;48.562;13.384;2022-09-03T08:13:12;31.20;73.50
34434;DHT22;34290;48.562;13.384;2022-09-03T08:15:39;31.40;73.80
34434;DHT22;34290;48.562;13.384;2022-09-03T08:18:07;30.30;73.20
34434;DHT22;34290;48.562;13.384;2022-09-03T08:20:37;29.80;75.00
34434;DHT22;34290;48.562;13.384;2022-09-03T08:23:04;29.10;75.40
34434;DHT22;34290;48.562;13.384;2022-09-03T08:25:31;29.30;77.50
34434;DHT22;34290;48.562;13.384;2022-09-03T08:28:01;30.10;75.40
34434;DHT22;34290;48.562;13.384;2022-09-03T08:30:32;30.10;75.00
34434;DHT22;34290;48.562;13.384;2022-09-03T08:33:00;30.90;73.00
34434;DHT22;34290;48.562;13.384;2022-09-03T08:35:29;30.60;73.80
34434;DHT22;34290;48.562;13.384;2022-09-03T08:37:58;28.90;73.10
34434;DHT22;34290;48.562;13.384;2022-09-03T08:40:30;28.90;77.00
34434;DHT22;34290;48.562;13.384;2022-09-03T08:43:07;27.60;77.50
34434;DHT22;34290;48.562;13.384;2022-09-03T08:45:37;28.30;77.00
34434;DHT22;34290;48.562;13.384;2022-09-03T08:48:08;29.00;76.10
34434;DHT22;34290;48.562;13.384;2022-09-03T08:50:39;28.70;75.40
34434;DHT22;34290;48.562;13.384;2022-09-03T08:53:13;28.60;75.50
34434;DHT22;34290;48.562;13.384;2022-09-03T08:55:49;29.50;75.90
34434;DHT22;34290;48.562;13.384;2022-09-03T08:58:17;30.40;73.80
34434;DHT22;34290;48.562;13.384;2022-09-03T09:00:51;30.10;72.80
34434;DHT22;34290;48.562;13.384;2022-09-03T09:03:41;29.20;74.10
34434;DHT22;34290;48.562;13.384;2022-09-03T09:06:20;29.20;75.10
34434;DHT22;34290;48.562;13.384;2022-09-03T09:08:59;29.20;75.00
34434;DHT22;34290;48.562;13.384;2022-09-03T09:11:39;28.10;75.50
34434;DHT22;34290;48.562;13.384;2022-09-03T09:14:16;27.90;76.00
34434;DHT22;34290;48.562;13.384;2022-09-03T09:16:49;29.90;74.50
34434;DHT22;34290;48.562;13.384;2022-09-03T09:19:31;29.90;75.10
34434;DHT22;34290;48.562;13.384;2022-09-03T09:24:38;30.30;74.20
34434;DHT22;34290;48.562;13.384;2022-09-03T09:27:07;31.00;73.20
34434;DHT22;34290;48.562;13.384;2022-09-03T09:29:36;30.20;73.20
34434;DHT22;34290;48.562;13.384;2022-09-03T09:32:07;30.50;72.20
34434;DHT22;34290;48.562;13.384;2022-09-03T09:34:35;30.50;72.80
34434;DHT22;34290;48.562;13.384;2022-09-03T09:37:06;31.00;73.80
34434;DHT22;34290;48.562;13.384;2022-09-03T09:39:35;32.00;71.00
34434;DHT22;34290;48.562;13.384;2022-09-03T09:42:05;32.00;70.60
34434;DHT22;34290;48.562;13.384;2022-09-03T09:44:34;32.00;72.20
34434;DHT22;34290;48.562;13.384;2022-09-03T09:47:04;31.50;71.70
34434;DHT22;34290;48.562;13.384;2022-09-03T09:49:33;31.40;71.00
34434;DHT22;34290;48.562;13.384;2022-09-03T09:52:03;31.00;73.60
34434;DHT22;34290;48.562;13.384;2022-09-03T09:54:30;30.20;72.00
34434;DHT22;34290;48.562;13.384;2022-09-03T09:57:00;30.70;71.50
34434;DHT22;34290;48.562;13.384;2022-09-03T09:59:28;30.90;72.20
34434;DHT22;34290;48.562;13.384;2022-09-03T10:02:11;30.70;71.00
34434;DHT22;34290;48.562;13.384;2022-09-03T10:04:39;30.60;72.20
34434;DHT22;34290;48.562;13.384;2022-09-03T10:07:22;31.40;72.20
34434;DHT22;34290;48.562;13.384;2022-09-03T10:10:00;30.60;72.80
34434;DHT22;34290;48.562;13.384;2022-09-03T10:12:31;31.70;72.20
34434;DHT22;34290;48.562;13.384;2022-09-03T10:15:10;32.20;71.40
34434;DHT22;34290;48.562;13.384;2022-09-03T10:17:51;32.90;71.60
34434;DHT22;34290;48.562;13.384;2022-09-03T10:20:23;33.40;69.70
34434;DHT22;34290;48.562;13.384;2022-09-03T10:23:00;33.00;69.20
34434;DHT22;34290;48.562;13.384;2022-09-03T10:25:33;32.70;70.20
34434;DHT22;34290;48.562;13.384;2022-09-03T10:28:07;32.70;69.20
34434;DHT22;34290;48.562;13.384;2022-09-03T10:30:54;32.60;71.40
34434;DHT22;34290;48.562;13.384;2022-09-03T10:33:28;32.80;68.10
34434;DHT22;34290;48.562;13.384;2022-09-03T10:36:07;32.30;69.20
34434;DHT22;34290;48.562;13.384;2022-09-03T10:38:38;31.00;70.50
34434;DHT22;34290;48.562;13.384;2022-09-03T10:41:16;30.60;72.00
34434;DHT22;34290;48.562;13.384;2022-09-03T10:44:11;30.60;72.10
34434;DHT22;34290;48.562;13.384;2022-09-03T10:46:49;30.90;73.20
34434;DHT22;34290;48.562;13.384;2022-09-03T10:49:29;31.20;72.60
34434;DHT22;34290;48.562;13.384;2022-09-03T10:52:02;32.10;73.00
34434;DHT22;34290;48.562;13.384;2022-09-03T10:54:42;32.00;70.30
34434;DHT22;34290;48.562;13.384;2022-09-03T10:57:21;31.40;71.50
34434;DHT22;34290;48.562;13.384;2022-09-03T11:00:02;30.30;72.00
34434;DHT22;34290;48.562;13.384;2022-09-03T11:05:30;29.60;74.30
34434;DHT22;34290;48.562;13.384;2022-09-03T11:08:08;29.40;74.10
34434;DHT22;34290;48.562;13.384;2022-09-03T11:10:40;29.80;74.60
34434;DHT22;34290;48.562;13.384;2022-09-03T11:13:11;29.60;75.90
34434;DHT22;34290;48.562;13.384;2022-09-03T11:15:47;30.20;74.20
34434;DHT22;34290;48.562;13.384;2022-09-03T11:18:21;30.20;73.70
34434;DHT22;34290;48.562;13.384;2022-09-03T11:20:55;28.50;75.70
34434;DHT22;34290;48.562;13.384;2022-09-03T11:23:32;27.80;76.20
34434;DHT22;34290;48.562;13.384;2022-09-03T11:26:03;27.20;77.60
34434;DHT22;34290;48.562;13.384;2022-09-03T11:28:40;26.40;78.50
34434;DHT22;34290;48.562;13.384;2022-09-03T11:31:22;26.40;79.40
34434;DHT22;34290;48.562;13.384;2022-09-03T11:33:53;27.10;79.70
34434;DHT22;34290;48.562;13.384;2022-09-03T11:36:29;27.30;79.00
34434;DHT22;34290;48.562;13.384;2022-09-03T11:38:56;27.00;79.60
34434;DHT22;34290;48.562;13.384;2022-09-03T11:41:25;26.80;78.60
34434;DHT22;34290;48.562;13.384;2022-09-03T11:43:53;26.80;78.90
34434;DHT22;34290;48.562;13.384;2022-09-03T11:46:29;26.40;80.20
34434;DHT22;34290;48.562;13.384;2022-09-03T11:49:08;27.70;79.00
34434;DHT22;34290;48.562;13.384;2022-09-03T11:51:36;28.30;78.30
34434;DHT22;34290;48.562;13.384;2022-09-03T11:54:23;27.70;78.20
34434;DHT22;34290;48.562;13.384;2022-09-03T11:57:02;27.70;79.80
34434;DHT22;34290;48.562;13.384;2022-09-03T11:59:31;27.50;78.30
34434;DHT22;34290;48.562;13.384;2022-09-03T12:02:01;27.40;79.80
34434;DHT22;34290;48.562;13.384;2022-09-03T12:04:34;27.20;78.70
34434;DHT22;34290;48.562;13.384;2022-09-03T12:07:29;26.60;80.80
34434;DHT22;34290;48.562;13.384;2022-09-03T12:10:15;25.70;81.20
34434;DHT22;34290;48.562;13.384;2022-09-03T12:12:57;25.30;82.00
34434;DHT22;34290;48.562;13.384;2022-09-03T12:15:53;24.80;83.90
34434;DHT22;34290;48.562;13.384;2022-09-03T12:18:28;24.50;87.00
34434;DHT22;34290;48.562;13.384;2022-09-03T12:21:02;24.30;85.90
34434;DHT22;34290;48.562;13.384;2022-09-03T12:23:31;24.20;85.50
34434;DHT22;34290;48.562;13.384;2022-09-03T12:26:02;23.80;85.60
34434;DHT22;34290;48.562;13.384;2022-09-03T12:28:34;23.60;88.00
34434;DHT22;34290;48.562;13.384;2022-09-03T12:31:07;23.50;86.30
34434;DHT22;34290;48.562;13.384;2022-09-03T12:33:48;23.50;87.70
34434;DHT22;34290;48.562;13.384;2022-09-03T12:36:20;23.70;88.00
34434;DHT22;34290;48.562;13.384;2022-09-03T12:38:48;23.80;88.20
34434;DHT22;34290;48.562;13.384;2022-09-03T12:41:23;24.00;87.50
34434;DHT22;34290;48.562;13.384;2022-09-03T12:43:52;24.00;86.60
34434;DHT22;34290;48.562;13.384;2022-09-03T12:46:23;23.80;87.20
34434;DHT22;34290;48.562;13.384;2022-09-03T12:48:56;23.80;87.70
34434;DHT22;34290;48.562;13.384;2022-09-03T12:51:33;23.90;87.50
34434;DHT22;34290;48.562;13.384;2022-09-03T12:54:02;24.00;88.40
34434;DHT22;34290;48.562;13.384;2022-09-03T12:56:32;24.20;86.30
34434;DHT22;34290;48.562;13.384;2022-09-03T12:59:04;23.80;86.40
34434;DHT22;34290;48.562;13.384;2022-09-03T13:01:37;23.80;86.40
34434;DHT22;34290;48.562;13.384;2022-09-03T13:04:09;23.60;86.40
34434;DHT22;34290;48.562;13.384;2022-09-03T13:06:46;23.40;87.40
34434;DHT22;34290;48.562;13.384;2022-09-03T13:09:17;23.10;90.00
34434;DHT22;34290;48.562;13.384;2022-09-03T13:14:15;23.20;87.90
34434;DHT22;34290;48.562;13.384;2022-09-03T13:17:06;23.40;87.50
34434;DHT22;34290;48.562;13.384;2022-09-03T13:19:49;23.40;87.50
34434;DHT22;34290;48.562;13.384;2022-09-03T13:22:29;23.20;87.30
34434;DHT22;34290;48.562;13.384;2022-09-03T13:25:12;23.20;87.60
34434;DHT22;34290;48.562;13.384;2022-09-03T13:27:45;23.40;88.80
34434;DHT22;34290;48.562;13.384;2022-09-03T13:30:19;23.60;88.10
34434;DHT22;34290;48.562;13.384;2022-09-03T13:32:54;23.90;88.60
34434;DHT22;34290;48.562;13.384;2022-09-03T13:35:35;24.00;86.50
34434;DHT22;34290;48.562;13.384;2022-09-03T13:38:10;24.20;86.00
34434;DHT22;34290;48.562;13.384;2022-09-03T13:40:45;24.10;86.90
34434;DHT22;34290;48.562;13.384;2022-09-03T13:43:26;24.00;86.50
34434;DHT22;34290;48.562;13.384;2022-09-03T13:45:57;24.00;86.70
34434;DHT22;34290;48.562;13.384;2022-09-03T13:48:30;24.20;86.70
34434;DHT22;34290;48.562;13.384;2022-09-03T13:51:22;23.90;86.80
34434;DHT22;34290;48.562;13.384;2022-09-03T13:54:02;24.00;87.60
34434;DHT22;34290;48.562;13.384;2022-09-03T13:56:45;24.10;88.50
34434;DHT22;34290;48.562;13.384;2022-09-03T13:59:23;24.40;88.10
34434;DHT22;34290;48.562;13.384;2022-09-03T14:02:06;24.50;87.60
34434;DHT22;34290;48.562;13.384;2022-09-03T14:04:43;24.50;86.60
34434;DHT22;34290;48.562;13.384;2022-09-03T14:07:18;24.30;87.40
34434;DHT22;34290;48.562;13.384;2022-09-03T14:09:55;23.90;88.30
34434;DHT22;34290;48.562;13.384;2022-09-03T14:12:34;23.60;87.90
34434;DHT22;34290;48.562;13.384;2022-09-03T14:15:14;23.60;87.50
34434;DHT22;34290;48.562;13.384;2022-09-03T14:17:46;23.60;88.90
34434;DHT22;34290;48.562;13.384;2022-09-03T14:20:19;23.80;87.60
34434;DHT22;34290;48.562;13.384;2022-09-03T14:22:54;23.90;87.10
34434;DHT22;34290;48.562;13.384;2022-09-03T14:25:23;24.10;87.20
34434;DHT22;34290;48.562;13.384;2022-09-03T14:27:54;24.10;86.40
34434;DHT22;34290;48.562;13.384;2022-09-03T14:30:36;24.10;86.70
34434;DHT22;34290;48.562;13.384;2022-09-03T14:33:15;24.00;87.00
34434;DHT22;34290;48.562;13.384;2022-09-03T14:35:56;24.00;87.10
34434;DHT22;34290;48.562;13.384;2022-09-03T14:39:05;23.80;87.80
34434;DHT22;34290;48.562;13.384;2022-09-03T14:47:48;23.70;88.60
34434;DHT22;34290;48.562;13.384;2022-09-03T14:50:31;23.90;88.50
34434;DHT22;34290;48.562;13.384;2022-09-03T14:53:25;23.70;86.80
34434;DHT22;34290;48.562;13.384;2022-09-03T14:56:18;23.50;87.80
34434;DHT22;34290;48.562;13.384;2022-09-03T14:58:59;23.50;88.40
34434;DHT22;34290;48.562;13.384;2022-09-03T15:01:31;23.60;87.40
34434;DHT22;34290;48.562;13.384;2022-09-03T15:04:18;23.60;87.50
34434;DHT22;34290;48.562;13.384;2022-09-03T15:07:07;23.60;88.60
34434;DHT22;34290;48.562;13.384;2022-09-03T15:09:46;23.70;89.30
34434;DHT22;34290;48.562;13.384;2022-09-03T15:12:22;23.70;89.10
34434;DHT22;34290;48.562;13.384;2022-09-03T15:14:53;23.80;89.40
34434;DHT22;34290;48.562;13.384;2022-09-03T15:17:42;23.80;89.90
34434;DHT22;34290;48.562;13.384;2022-09-03T15:20:19;23.90;89.30
34434;DHT22;34290;48.562;13.384;2022-09-03T15:25:57;23.70;90.50
34434;DHT22;34290;48.562;13.384;2022-09-03T15:28:36;23.60;90.00
34434;DHT22;34290;48.562;13.384;2022-09-03T15:31:14;23.50;90.10
34434;DHT22;34290;48.562;13.384;2022-09-03T15:33:50;23.50;90.20
34434;DHT22;34290;48.562;13.384;2022-09-03T15:36:19;23.60;90.50
34434;DHT22;34290;48.562;13.384;2022-09-03T15:38:51;23.60;90.30
34434;DHT22;34290;48.562;13.384;2022-09-03T15:41:32;23.60;90.50
34434;DHT22;34290;48.562;13.384;2022-09-03T15:44:05;23.70;90.90
34434;DHT22;34290;48.562;13.384;2022-09-03T15:46:38;23.50;91.20
34434;DHT22;34290;48.562;13.384;2022-09-03T15:49:20;23.50;91.20
34434;DHT22;34290;48.562;13.384;2022-09-03T15:52:02;23.50;91.50
34434;DHT22;34290;48.562;13.384;2022-09-03T15:54:38;23.40;92.40
34434;DHT22;34290;48.562;13.384;2022-09-03T15:57:11;23.40;92.70
34434;DHT22;34290;48.562;13.384;2022-09-03T15:59:47;23.20;92.40
34434;DHT22;34290;48.562;13.384;2022-09-03T16:02:19;23.00;92.90
34434;DHT22;34290;48.562;13.384;2022-09-03T16:05:04;22.90;93.70
34434;DHT22;34290;48.562;13.384;2022-09-03T16:08:02;22.90;93.70
34434;DHT22;34290;48.562;13.384;2022-09-03T16:10:41;22.80;93.90
34434;DHT22;34290;48.562;13.384;2022-09-03T16:13:30;22.70;93.50
34434;DHT22;34290;48.562;13.384;2022-09-03T16:16:03;22.60;94.10
34434;DHT22;34290;48.562;13.384;2022-09-03T16:18:33;22.70;94.40
34434;DHT22;34290;48.562;13.384;2022-09-03T16:21:04;22.50;94.40
34434;DHT22;34290;48.562;13.384;2022-09-03T16:23:39;22.50;94.90
34434;DHT22;34290;48.562;13.384;2022-09-03T16:26:12;22.50;94.60
34434;DHT22;34290;48.562;13.384;2022-09-03T16:28:45;22.30;94.60
34434;DHT22;34290;48.562;13.384;2022-09-03T16:31:23;22.30;94.50
34434;DHT22;34290;48.562;13.384;2022-09-03T16:34:00;22.20;94.70
34434;DHT22;34290;48.562;13.384;2022-09-03T16:36:47;22.10;94.50
34434;DHT22;34290;48.562;13.384;2022-09-03T16:39:25;22.00;94.30
34434;DHT22;34290;48.562;13.384;2022-09-03T16:42:03;21.80;94.60
34434;DHT22;34290;48.562;13.384;2022-09-03T16:44:44;21.60;94.80